Accueil
METAR-TAF:

METAR-TAF

Aéroports :

Koweït, Koweït

Aéroport international de Koweït

latitude: 29-13N, longitude: 047-59E, altitude: 55 m

Observation

Le bulletin a été fait il y a 50 minutes, à 22:00 UTC
Vent 6 kt de ouest
Température 24°C
Humidité 31%
Pression 1013 hPa
Visibilité: 8000 m

METAR: OKBK 242200Z 26006KT 8000 NSC 24/06 Q1013 NOSIG

Heure: 01:50 (22:50 UTC)

Prévision

Le bulletin a été fait il y a 6 heures et 5 minutes, à 16:45 UTC
Prévision valable du 24 à 18 UTC au 25 à 24 UTC
Vent 3 kt de direction variable
Visibilité: 6000 m
Nuages épars à une hauteur de 4000 ft
Evoluant progressivement
du 25 à 03 UTC au 25 à 05 UTC
Vent 8 kt de nord/nord-est

TAF: OKBK 241645Z 2418/2524 VRB03KT 6000 SCT040 BECMG 2503/2505 02008KT

Observations et prévisions météorologiques de plus de 4000 aéroports (messages METAR et TAF).

Les stations disponibles sont représentées par des disques jaunes et rouges sur la carte.

Passer la souris dessus pour voir le nom de la station.

Cliquer dessus pour voir les observations et prévisions météorologiques.

Pour changer de carte: cliquez sur les boutons verts avec une croix noire pour zoomer, sur le bouton vert avec un tiret pour effectuer un zoom arrière, ou sur les flèches vertes pour les cartes adjacentes.


METAR-TAF: